YXQU weather

Quirindi Hospital Helipad
Quirindi, New South Wales, Australia

Public forecast

Using degrees Celsius for public forecast. Weather courtesy of forecast.io.

Closest aviation weather report (METAR) to Quirindi Hospital Helipad

Closest report is Tamworth Airport, 26.5 nm (49.1 km) NNE. Retrieved 2019/10/18 03:30 UTC (0 seconds ago):

YSTW 180330Z AUTO 26004KT 9999 // NCD 24/M09 Q1017 RF000/0000

Closest aviation forecast (TAF) to Quirindi Hospital Helipad

Closest forecast is Tamworth Airport, 26.5 nm (49.1 km) NNE. Retrieved 2019-10-18 00:36 UTC (3 hours ago):

TAF YSTW 172253Z 1800/1818 28008KT CAVOK FM181000 15008KT CAVOK